South Wallingford, Vermont
Current Conditions -  °F | °C
As of 6:15 AM on Friday 24 Oct 2014 (Local Time) from KRUT Reporting Station
Overcast Overcast  
Wind Chill: 35°   Ceiling: 500
Heat Index: 41°   Visibility: 5mi
Dew Point: 39°   Wind: 10mph
Humidity: 93%   Direction: 330°NNW
Pressure: 29.81"   Gusts: 18mph
Location:  43.4377°N, 73.0014°W
Report Text: KRUT 241015Z 33009G16KT 5SM OVC005 05/04 A2981 RMK AO1
Loading
Personal Weather Stations






























Interactive Weather Map
Tropical Storm Tracking
New forecast layout! Learn more

10-Day Weather Forecast

Advertisements
Track Severe Weather on mobile